createdAt,value
2018-11-28T00:00:44.908Z,1.55
2018-11-28T00:03:33.679Z,1.59
2018-11-28T00:06:22.463Z,1.51
2018-11-28T00:09:11.233Z,1.62
2018-11-28T00:12:00.377Z,1.52
2018-11-28T00:14:49.134Z,1.56
2018-11-28T00:17:38.041Z,1.53
2018-11-28T00:20:26.861Z,1.62
2018-11-28T00:23:15.925Z,1.64
2018-11-28T00:26:04.713Z,-0.09
2018-11-28T00:28:53.494Z,1.72
2018-11-28T00:31:42.277Z,1.72
2018-11-28T00:34:31.031Z,1.71
2018-11-28T00:37:19.822Z,1.80
2018-11-28T00:40:10.004Z,1.83
2018-11-28T00:42:58.815Z,1.82
2018-11-28T00:45:47.904Z,1.65
2018-11-28T00:48:36.683Z,1.76
2018-11-28T00:51:25.463Z,1.78
2018-11-28T00:54:14.238Z,1.83
2018-11-28T00:57:03.000Z,1.79
2018-11-28T00:59:51.798Z,1.78
2018-11-28T01:02:40.594Z,0.95
2018-11-28T01:05:29.363Z,1.78
2018-11-28T01:08:18.764Z,1.67
2018-11-28T01:11:07.640Z,1.41
2018-11-28T01:13:56.409Z,1.61
2018-11-28T01:16:45.467Z,1.66
2018-11-28T01:19:34.254Z,1.78
2018-11-28T01:22:23.052Z,1.77
2018-11-28T01:25:31.223Z,1.59
2018-11-28T01:28:20.001Z,1.51
2018-11-28T01:31:08.819Z,1.51
2018-11-28T01:33:57.549Z,-0.32
2018-11-28T01:36:46.621Z,1.59
2018-11-28T01:39:35.385Z,1.67
2018-11-28T01:42:24.183Z,1.66
2018-11-28T01:45:14.031Z,1.74
2018-11-28T01:48:02.860Z,1.69
2018-11-28T01:50:51.619Z,1.67
2018-11-28T01:53:40.403Z,0.38
2018-11-28T01:56:29.171Z,1.79
2018-11-28T01:59:18.231Z,1.73
2018-11-28T02:02:09.688Z,1.69
2018-11-28T02:04:58.478Z,1.65
2018-11-28T02:07:47.242Z,0.70
2018-11-28T02:10:36.031Z,1.59
2018-11-28T02:13:25.059Z,1.62
2018-11-28T02:16:13.833Z,1.67
2018-11-28T02:19:02.577Z,1.69
2018-11-28T02:21:51.358Z,1.54
2018-11-28T02:24:40.131Z,1.60
2018-11-28T02:27:28.916Z,1.64
2018-11-28T02:30:21.574Z,1.65
2018-11-28T02:33:10.347Z,1.60
2018-11-28T02:35:59.123Z,0.97
2018-11-28T02:38:48.204Z,1.52
2018-11-28T02:41:36.984Z,1.33
2018-11-28T02:44:26.028Z,1.34
2018-11-28T02:47:14.808Z,1.29
2018-11-28T02:50:03.568Z,1.35
2018-11-28T02:52:52.357Z,1.40
2018-11-28T02:55:41.194Z,1.38
2018-11-28T02:58:29.978Z,1.35
2018-11-28T03:01:18.750Z,-0.06
2018-11-28T03:04:07.533Z,1.22
2018-11-28T03:06:56.294Z,1.20
2018-11-28T03:09:45.350Z,1.19
2018-11-28T03:12:34.116Z,1.24
2018-11-28T03:15:33.800Z,1.16
2018-11-28T03:18:23.282Z,1.05
2018-11-28T03:21:12.058Z,0.83
2018-11-28T03:24:00.830Z,0.82
2018-11-28T03:26:49.602Z,0.88
2018-11-28T03:29:38.397Z,0.86
2018-11-28T03:32:27.175Z,0.87
2018-11-28T03:35:16.439Z,0.80
2018-11-28T03:38:05.311Z,0.88
2018-11-28T03:40:54.378Z,0.94
2018-11-28T03:43:43.170Z,0.98
2018-11-28T03:46:32.220Z,1.03
2018-11-28T03:49:21.167Z,0.96
2018-11-28T03:52:10.145Z,0.95
2018-11-28T03:54:59.127Z,1.07
2018-11-28T03:57:49.042Z,1.08
2018-11-28T04:00:38.207Z,1.07
2018-11-28T04:03:26.977Z,1.05
2018-11-28T04:06:15.745Z,1.10
2018-11-28T04:08:45.172Z,1.11
2018-11-28T04:11:33.955Z,1.07
2018-11-28T04:14:22.718Z,1.06
2018-11-28T04:17:11.504Z,-0.51
2018-11-28T04:20:00.260Z,1.03
2018-11-28T04:22:49.054Z,1.10
2018-11-28T04:25:37.821Z,1.04
2018-11-28T04:28:26.613Z,1.02
2018-11-28T04:31:15.385Z,0.86
2018-11-28T04:34:04.174Z,1.07
2018-11-28T04:36:53.323Z,1.04
2018-11-28T04:39:42.120Z,1.02
2018-11-28T04:42:30.880Z,1.05
2018-11-28T04:45:39.042Z,0.21
2018-11-28T04:48:27.825Z,-0.38
2018-11-28T04:51:16.668Z,1.08
2018-11-28T04:54:05.377Z,1.12
2018-11-28T04:56:54.159Z,1.08
2018-11-28T04:59:42.932Z,-0.29
2018-11-28T05:02:31.722Z,1.11
2018-11-28T05:05:20.490Z,1.05
2018-11-28T05:08:09.364Z,1.05
2018-11-28T05:10:58.053Z,1.02
2018-11-28T05:13:47.098Z,0.95
2018-11-28T05:16:35.892Z,0.85
2018-11-28T05:19:24.941Z,0.76
2018-11-28T05:22:13.729Z,0.85
2018-11-28T05:25:02.804Z,0.99
2018-11-28T05:27:52.456Z,1.05
2018-11-28T05:30:41.396Z,1.11
2018-11-28T05:33:30.182Z,1.23
2018-11-28T05:36:18.934Z,1.32
2018-11-28T05:39:08.068Z,1.36
2018-11-28T05:41:56.828Z,1.44
2018-11-28T05:44:45.908Z,1.50
2018-11-28T05:47:34.960Z,1.55
2018-11-28T05:50:23.770Z,1.52
2018-11-28T05:53:12.528Z,1.57
2018-11-28T05:56:01.306Z,1.54
2018-11-28T05:58:50.073Z,1.44
2018-11-28T06:01:38.860Z,1.48
2018-11-28T06:04:27.889Z,1.46
2018-11-28T06:07:16.824Z,1.42
2018-11-28T06:10:06.471Z,1.35
2018-11-28T06:12:55.760Z,1.23
2018-11-28T06:15:45.113Z,1.14
2018-11-28T06:18:33.876Z,1.05
2018-11-28T06:21:22.648Z,1.05
2018-11-28T06:24:11.409Z,0.99
2018-11-28T06:27:00.187Z,0.94
2018-11-28T06:29:48.941Z,0.90
2018-11-28T06:32:37.878Z,0.84
2018-11-28T06:35:26.640Z,0.77
2018-11-28T06:38:15.426Z,0.81
2018-11-28T06:41:04.206Z,0.73
2018-11-28T06:43:53.021Z,0.78
2018-11-28T06:46:42.111Z,0.68
2018-11-28T06:49:30.879Z,0.64
2018-11-28T06:52:19.931Z,0.62
2018-11-28T06:55:10.559Z,0.67
2018-11-28T06:57:59.785Z,0.67
2018-11-28T07:00:49.166Z,0.70
2018-11-28T07:03:38.124Z,0.67
2018-11-28T07:06:27.753Z,0.62
2018-11-28T07:09:16.674Z,0.48
2018-11-28T07:12:05.689Z,0.40
2018-11-28T07:14:54.994Z,0.31
2018-11-28T07:17:44.264Z,0.29
2018-11-28T07:20:33.540Z,-0.84
2018-11-28T07:23:22.512Z,0.27
2018-11-28T07:26:11.450Z,0.24
2018-11-28T07:29:00.397Z,0.14
2018-11-28T07:31:49.369Z,0.11
2018-11-28T07:34:38.356Z,-0.67
2018-11-28T07:37:27.276Z,-1.59
2018-11-28T07:40:26.299Z,0.34
2018-11-28T07:43:15.404Z,0.48
2018-11-28T07:46:04.676Z,-1.39
2018-11-28T07:48:53.719Z,0.65
2018-11-28T07:51:42.644Z,0.74
2018-11-28T07:54:31.629Z,0.87
2018-11-28T07:57:20.557Z,0.45
2018-11-28T08:00:15.921Z,-0.66
2018-11-28T08:03:05.767Z,0.98
2018-11-28T08:05:55.089Z,1.27
2018-11-28T08:08:44.021Z,1.28
2018-11-28T08:11:32.892Z,1.38
2018-11-28T08:14:21.799Z,1.50
2018-11-28T08:17:10.574Z,1.58
2018-11-28T08:19:59.344Z,1.66
2018-11-28T08:22:48.127Z,1.67
2018-11-28T08:25:36.895Z,1.78
2018-11-28T08:28:25.699Z,1.80
2018-11-28T08:31:14.741Z,1.91
2018-11-28T08:34:03.507Z,2.08
2018-11-28T08:36:52.559Z,2.09
2018-11-28T08:39:41.353Z,2.14
2018-11-28T08:42:30.143Z,1.94
2018-11-28T08:45:19.842Z,1.84
2018-11-28T08:48:08.488Z,1.78
2018-11-28T08:50:57.282Z,1.72
2018-11-28T08:53:46.057Z,1.73
2018-11-28T08:56:34.839Z,1.89
2018-11-28T08:59:23.604Z,1.92
2018-11-28T09:02:12.703Z,0.24
2018-11-28T09:05:01.744Z,2.08
2018-11-28T09:07:50.794Z,2.15
2018-11-28T09:10:39.555Z,2.24
2018-11-28T09:13:28.346Z,2.22
2018-11-28T09:16:17.115Z,2.28
2018-11-28T09:19:05.900Z,1.02
2018-11-28T09:21:54.662Z,2.33
2018-11-28T09:24:43.435Z,2.44
2018-11-28T09:27:32.455Z,2.53
2018-11-28T09:30:21.288Z,2.32
2018-11-28T09:33:10.050Z,2.50
2018-11-28T09:35:59.158Z,2.62
2018-11-28T09:38:47.941Z,1.42
2018-11-28T09:41:37.004Z,2.90
2018-11-28T09:44:25.800Z,2.96
2018-11-28T09:47:14.557Z,1.28
2018-11-28T09:50:03.334Z,3.09
2018-11-28T09:52:52.124Z,3.13
2018-11-28T09:55:40.909Z,3.19
2018-11-28T09:58:29.666Z,3.17
2018-11-28T10:01:18.749Z,3.12
2018-11-28T10:04:07.582Z,3.09
2018-11-28T10:06:56.367Z,3.01
2018-11-28T10:09:45.414Z,3.08
2018-11-28T10:12:34.476Z,3.15
2018-11-28T10:15:46.246Z,3.25
2018-11-28T10:18:35.884Z,2.38
2018-11-28T10:21:23.793Z,3.20
2018-11-28T10:24:12.582Z,2.43
2018-11-28T10:27:01.339Z,3.33
2018-11-28T10:29:50.113Z,3.35
2018-11-28T10:32:39.234Z,3.21
2018-11-28T10:35:28.060Z,3.00
2018-11-28T10:38:17.096Z,3.17
2018-11-28T10:41:06.286Z,3.35
2018-11-28T10:43:55.089Z,3.26
2018-11-28T10:46:43.901Z,3.40
2018-11-28T10:49:32.957Z,3.07
2018-11-28T10:52:22.085Z,3.33
2018-11-28T10:55:30.228Z,3.24
2018-11-28T10:58:18.996Z,3.49
2018-11-28T11:01:26.839Z,3.78
2018-11-28T11:04:16.236Z,3.99
2018-11-28T11:07:23.970Z,4.28
2018-11-28T11:10:31.723Z,4.51
2018-11-28T11:13:39.474Z,4.54
2018-11-28T11:16:47.218Z,3.26
2018-11-28T11:19:36.009Z,4.82
2018-11-28T11:22:24.772Z,4.91
2018-11-28T11:25:13.888Z,2.81
2018-11-28T11:28:02.640Z,3.31
2018-11-28T11:30:51.435Z,5.15
2018-11-28T11:33:40.208Z,5.01
2018-11-28T11:36:29.016Z,5.05
2018-11-28T11:39:17.765Z,5.31
2018-11-28T11:42:06.693Z,5.33
2018-11-28T11:44:55.482Z,5.26
2018-11-28T11:47:44.289Z,5.25
2018-11-28T11:50:33.068Z,5.31
2018-11-28T11:53:21.876Z,5.39
2018-11-28T11:56:10.643Z,5.54
2018-11-28T11:58:59.421Z,5.77
2018-11-28T12:01:54.556Z,5.84
2018-11-28T12:04:37.246Z,5.07
2018-11-28T12:07:25.996Z,5.71
2018-11-28T12:10:14.970Z,5.51
2018-11-28T12:13:03.733Z,4.79
2018-11-28T12:15:52.520Z,3.91
2018-11-28T12:18:41.296Z,5.66
2018-11-28T12:21:30.110Z,5.76
2018-11-28T12:24:18.867Z,5.50
2018-11-28T12:27:07.647Z,5.57
2018-11-28T12:29:56.798Z,5.70
2018-11-28T12:32:45.554Z,5.93
2018-11-28T12:35:34.322Z,6.00
2018-11-28T12:38:23.085Z,5.81
2018-11-28T12:41:11.892Z,5.79
2018-11-28T12:44:00.651Z,5.44
2018-11-28T12:46:49.437Z,5.36
2018-11-28T12:49:38.205Z,3.78
2018-11-28T12:52:26.986Z,5.44
2018-11-28T12:55:15.899Z,5.54
2018-11-28T12:58:04.876Z,5.51
2018-11-28T13:00:53.640Z,5.61
2018-11-28T13:03:42.436Z,5.28
2018-11-28T13:06:31.552Z,5.38
2018-11-28T13:09:20.342Z,5.56
2018-11-28T13:12:09.091Z,5.51
2018-11-28T13:14:57.893Z,5.71
2018-11-28T13:17:46.681Z,5.57
2018-11-28T13:20:35.452Z,4.03
2018-11-28T13:23:24.209Z,5.36
2018-11-28T13:26:12.979Z,5.20
2018-11-28T13:29:01.754Z,5.11
2018-11-28T13:31:50.544Z,5.02
2018-11-28T13:34:39.332Z,3.37
2018-11-28T13:37:28.083Z,4.96
2018-11-28T13:40:17.878Z,4.94
2018-11-28T13:43:06.903Z,4.90
2018-11-28T13:45:55.971Z,4.82
2018-11-28T13:48:44.750Z,4.81
2018-11-28T13:51:33.775Z,3.61
2018-11-28T13:54:22.553Z,4.72
2018-11-28T13:57:11.874Z,4.70
2018-11-28T14:00:00.338Z,4.72
2018-11-28T14:02:49.139Z,4.63
2018-11-28T14:05:37.889Z,3.23
2018-11-28T14:08:26.684Z,4.67
2018-11-28T14:11:15.775Z,4.54
2018-11-28T14:14:04.561Z,4.55
2018-11-28T14:16:53.360Z,4.65
2018-11-28T14:19:42.123Z,4.73
2018-11-28T14:22:30.911Z,3.40
2018-11-28T14:25:19.931Z,4.78
2018-11-28T14:28:08.899Z,3.04
2018-11-28T14:30:57.671Z,3.14
2018-11-28T14:33:50.755Z,4.92
2018-11-28T14:36:35.228Z,4.84
2018-11-28T14:39:24.080Z,3.32
2018-11-28T14:42:13.121Z,4.84
2018-11-28T14:45:01.990Z,4.77
2018-11-28T14:47:51.202Z,3.24
2018-11-28T14:50:40.000Z,4.75
2018-11-28T14:53:28.781Z,4.81
2018-11-28T14:56:17.543Z,4.40
2018-11-28T14:59:06.692Z,4.76
2018-11-28T15:01:55.766Z,4.77
2018-11-28T15:04:44.848Z,4.72
2018-11-28T15:07:33.630Z,4.70
2018-11-28T15:10:44.063Z,4.65
2018-11-28T15:13:32.862Z,4.67
2018-11-28T15:16:21.668Z,2.91
2018-11-28T15:19:10.419Z,4.57
2018-11-28T15:21:59.217Z,3.00
2018-11-28T15:24:48.343Z,4.46
2018-11-28T15:27:37.426Z,4.39
2018-11-28T15:30:26.212Z,2.47
2018-11-28T15:33:14.982Z,4.24
2018-11-28T15:36:03.795Z,3.86
2018-11-28T15:38:52.523Z,4.16
2018-11-28T15:41:34.570Z,4.14
2018-11-28T15:44:23.336Z,4.14
2018-11-28T15:47:12.150Z,4.09
2018-11-28T15:50:00.921Z,3.11
2018-11-28T15:52:49.728Z,2.20
2018-11-28T15:55:38.491Z,4.05
2018-11-28T15:58:27.272Z,4.06
2018-11-28T16:01:16.051Z,4.08
2018-11-28T16:04:05.166Z,3.98
2018-11-28T16:06:53.932Z,4.06
2018-11-28T16:10:01.682Z,4.03
2018-11-28T16:12:50.700Z,3.93
2018-11-28T16:15:59.352Z,3.72
2018-11-28T16:18:48.105Z,4.01
2018-11-28T16:21:36.878Z,2.63
2018-11-28T16:24:25.657Z,3.15
2018-11-28T16:27:14.451Z,3.76
2018-11-28T16:30:03.237Z,3.72
2018-11-28T16:32:52.032Z,3.76
2018-11-28T16:35:40.843Z,3.74
2018-11-28T16:38:29.637Z,3.79
2018-11-28T16:41:18.407Z,2.75
2018-11-28T16:44:07.477Z,3.76
2018-11-28T16:46:56.261Z,3.83
2018-11-28T16:49:45.026Z,3.81
2018-11-28T16:52:33.819Z,3.88
2018-11-28T16:55:22.589Z,3.72
2018-11-28T16:58:11.695Z,2.08
2018-11-28T17:01:00.845Z,3.85
2018-11-28T17:03:49.962Z,3.84
2018-11-28T17:06:38.897Z,3.85
2018-11-28T17:09:27.858Z,3.86
2018-11-28T17:12:16.627Z,3.80
2018-11-28T17:15:06.373Z,3.81
2018-11-28T17:17:55.394Z,3.81
2018-11-28T17:20:44.388Z,3.81
2018-11-28T17:23:34.130Z,3.78
2018-11-28T17:26:22.651Z,3.75
2018-11-28T17:29:11.949Z,3.63
2018-11-28T17:32:00.882Z,3.56
2018-11-28T17:34:49.841Z,3.49
2018-11-28T17:37:38.735Z,3.40
2018-11-28T17:40:28.453Z,3.39
2018-11-28T17:43:17.342Z,1.78
2018-11-28T17:46:06.154Z,3.38
2018-11-28T17:48:55.062Z,3.31
2018-11-28T17:51:44.365Z,3.28
2018-11-28T17:54:33.379Z,2.60
2018-11-28T17:57:22.279Z,3.29
2018-11-28T18:00:30.595Z,1.26
2018-11-28T18:03:19.966Z,3.34
2018-11-28T18:06:09.248Z,2.80
2018-11-28T18:08:58.046Z,3.34
2018-11-28T18:11:46.812Z,3.38
2018-11-28T18:14:35.629Z,3.42
2018-11-28T18:17:24.399Z,3.38
2018-11-28T18:20:13.199Z,3.42
2018-11-28T18:23:02.015Z,3.48
2018-11-28T18:25:50.850Z,3.52
2018-11-28T18:28:39.981Z,3.56
2018-11-28T18:31:29.165Z,3.63
2018-11-28T18:34:10.835Z,3.02
2018-11-28T18:36:59.963Z,3.67
2018-11-28T18:39:48.774Z,3.71
2018-11-28T18:42:37.659Z,3.72
2018-11-28T18:45:27.788Z,3.76
2018-11-28T18:48:16.549Z,3.80
2018-11-28T18:51:05.340Z,3.70
2018-11-28T18:53:54.159Z,3.76
2018-11-28T18:56:43.433Z,3.79
2018-11-28T18:59:32.198Z,3.77
2018-11-28T19:02:21.074Z,3.79
2018-11-28T19:05:09.862Z,3.71
2018-11-28T19:07:58.745Z,3.72
2018-11-28T19:10:47.555Z,3.68
2018-11-28T19:13:36.361Z,3.69
2018-11-28T19:16:25.149Z,3.71
2018-11-28T19:19:13.949Z,3.73
2018-11-28T19:22:02.899Z,3.71
2018-11-28T19:24:51.790Z,2.16
2018-11-28T19:27:40.945Z,3.78
2018-11-28T19:30:49.770Z,3.73
2018-11-28T19:33:39.989Z,3.73
2018-11-28T19:36:29.987Z,3.71
2018-11-28T19:39:19.856Z,3.70
2018-11-28T19:45:19.135Z,3.76
2018-11-28T19:48:09.508Z,3.68
2018-11-28T19:50:59.903Z,3.67
2018-11-28T19:53:49.824Z,1.95
2018-11-28T19:56:40.054Z,3.57
2018-11-28T19:59:30.552Z,3.54
2018-11-28T20:02:20.948Z,3.48
2018-11-28T20:05:11.542Z,3.45
2018-11-28T20:08:01.856Z,3.38
2018-11-28T20:10:52.273Z,1.86
2018-11-28T20:13:42.681Z,3.40
2018-11-28T20:19:43.407Z,1.38
2018-11-28T20:22:33.945Z,2.90
2018-11-28T20:25:25.401Z,3.48
2018-11-28T20:28:15.939Z,3.49
2018-11-28T20:31:06.525Z,3.48
2018-11-28T20:33:57.021Z,3.42
2018-11-28T20:36:47.364Z,3.41
2018-11-28T20:39:37.850Z,3.37
2018-11-28T20:42:28.195Z,3.42
2018-11-28T20:45:18.756Z,3.50
2018-11-28T20:48:27.752Z,3.43
2018-11-28T20:51:18.178Z,3.43
2018-11-28T20:54:08.631Z,2.87
2018-11-28T20:56:59.083Z,3.38
2018-11-28T21:00:12.208Z,3.36
2018-11-28T21:03:02.773Z,3.36
2018-11-28T21:05:53.178Z,3.36
2018-11-28T21:08:43.689Z,2.04
2018-11-28T21:11:34.024Z,3.29
2018-11-28T21:14:24.395Z,3.33
2018-11-28T21:17:14.975Z,3.28
2018-11-28T21:20:05.441Z,3.29
2018-11-28T21:23:17.724Z,3.31
2018-11-28T21:26:07.284Z,1.33
2018-11-28T21:28:56.822Z,3.23
2018-11-28T21:31:46.260Z,3.20
2018-11-28T21:34:35.379Z,3.25
2018-11-28T21:37:24.479Z,3.24
2018-11-28T21:40:13.742Z,3.27
2018-11-28T21:43:03.080Z,3.32
2018-11-28T21:45:52.140Z,3.27
2018-11-28T21:48:40.986Z,3.19
2018-11-28T21:51:29.757Z,3.23
2018-11-28T21:54:18.560Z,3.25
2018-11-28T21:57:07.352Z,3.19
2018-11-28T21:59:36.756Z,3.14
2018-11-28T22:02:25.528Z,3.20
2018-11-28T22:05:14.951Z,3.22
2018-11-28T22:08:03.823Z,3.21
2018-11-28T22:10:52.620Z,3.13
2018-11-28T22:13:41.402Z,3.16
2018-11-28T22:16:30.199Z,3.18
2018-11-28T22:19:18.986Z,3.21
2018-11-28T22:22:07.764Z,3.26
2018-11-28T22:24:56.881Z,3.30
2018-11-28T22:27:45.656Z,3.35
2018-11-28T22:30:34.459Z,1.35
2018-11-28T22:33:23.248Z,3.29
2018-11-28T22:36:12.036Z,1.72
2018-11-28T22:39:00.838Z,1.91
2018-11-28T22:41:49.881Z,1.86
2018-11-28T22:44:38.669Z,3.22
2018-11-28T22:47:27.475Z,2.60
2018-11-28T22:50:16.236Z,3.21
2018-11-28T22:52:58.059Z,3.24
2018-11-28T22:55:47.528Z,3.22
2018-11-28T22:58:36.314Z,3.25
2018-11-28T23:01:57.040Z,3.23
2018-11-28T23:04:45.831Z,3.26
2018-11-28T23:07:34.647Z,3.20
2018-11-28T23:10:23.432Z,3.21
2018-11-28T23:13:16.104Z,1.68
2018-11-28T23:16:05.063Z,1.99
2018-11-28T23:18:54.034Z,3.05
2018-11-28T23:21:43.233Z,3.05
2018-11-28T23:24:32.220Z,3.05
2018-11-28T23:27:21.396Z,3.14
2018-11-28T23:30:32.947Z,1.86
2018-11-28T23:33:21.895Z,3.22
2018-11-28T23:36:11.307Z,3.24
2018-11-28T23:39:00.304Z,3.21
2018-11-28T23:41:49.295Z,2.94
2018-11-28T23:44:38.221Z,3.19
2018-11-28T23:47:28.471Z,3.19
2018-11-28T23:50:36.741Z,3.21
2018-11-28T23:53:26.048Z,3.19
2018-11-28T23:56:14.925Z,3.14
2018-11-28T23:59:04.497Z,3.11
